createdAt,value
2018-06-11T00:00:35.639Z,97433.14
2018-06-11T00:03:03.217Z,97423.23
2018-06-11T00:05:31.036Z,97429.40
2018-06-11T00:07:58.604Z,97432.36
2018-06-11T00:10:26.151Z,97439.87
2018-06-11T00:12:53.675Z,97445.89
2018-06-11T00:15:21.263Z,97448.20
2018-06-11T00:17:48.931Z,97447.16
2018-06-11T00:20:16.463Z,97447.98
2018-06-11T00:22:44.042Z,97449.50
2018-06-11T00:25:11.576Z,97448.78
2018-06-11T00:27:39.094Z,97440.05
2018-06-11T00:30:06.730Z,97442.34
2018-06-11T00:32:34.296Z,97442.78
2018-06-11T00:35:01.821Z,97438.56
2018-06-11T00:37:29.396Z,97431.74
2018-06-11T00:39:56.917Z,97439.31
2018-06-11T00:42:24.435Z,97445.16
2018-06-11T00:44:51.991Z,97458.66
2018-06-11T00:47:19.522Z,97451.98
2018-06-11T00:49:47.038Z,97454.28
2018-06-11T00:52:14.588Z,97438.70
2018-06-11T00:54:42.141Z,97447.69
2018-06-11T00:57:09.658Z,97438.16
2018-06-11T00:59:37.197Z,97428.74
2018-06-11T01:02:04.738Z,97427.02
2018-06-11T01:04:32.254Z,97422.83
2018-06-11T01:06:59.802Z,97415.47
2018-06-11T01:09:27.310Z,97418.74
2018-06-11T01:11:54.854Z,97420.04
2018-06-11T01:14:22.402Z,97435.64
2018-06-11T01:16:49.907Z,97430.56
2018-06-11T01:19:17.486Z,97428.75
2018-06-11T01:21:45.066Z,97421.39
2018-06-11T01:24:12.571Z,97427.23
2018-06-11T01:26:40.080Z,97423.55
2018-06-11T01:29:07.639Z,97423.02
2018-06-11T01:31:35.161Z,97417.39
2018-06-11T01:34:02.694Z,97413.06
2018-06-11T01:36:30.330Z,97413.28
2018-06-11T01:38:57.845Z,97406.68
2018-06-11T01:41:25.375Z,97412.77
2018-06-11T01:43:52.910Z,97418.71
2018-06-11T01:46:20.417Z,97415.70
2018-06-11T01:48:47.946Z,97414.73
2018-06-11T01:51:15.561Z,97411.63
2018-06-11T01:53:43.077Z,97409.24
2018-06-11T01:56:10.589Z,97410.23
2018-06-11T01:58:38.149Z,97418.02
2018-06-11T02:01:05.659Z,97420.84
2018-06-11T02:03:33.161Z,97421.48
2018-06-11T02:06:00.706Z,97431.33
2018-06-11T02:08:28.261Z,97429.41
2018-06-11T02:10:55.782Z,97434.69
2018-06-11T02:13:23.341Z,97437.89
2018-06-11T02:15:50.864Z,97440.06
2018-06-11T02:18:18.478Z,97443.94
2018-06-11T02:20:46.010Z,97441.85
2018-06-11T02:23:13.527Z,97437.86
2018-06-11T02:25:41.034Z,97435.38
2018-06-11T02:28:08.798Z,97444.52
2018-06-11T02:30:36.314Z,97441.48
2018-06-11T02:33:03.830Z,97442.66
2018-06-11T02:35:31.394Z,97441.03
2018-06-11T02:37:58.903Z,97447.41
2018-06-11T02:40:26.423Z,97449.22
2018-06-11T02:42:53.971Z,97450.20
2018-06-11T02:45:21.478Z,97446.63
2018-06-11T02:47:49.011Z,97445.87
2018-06-11T02:50:16.562Z,97440.78
2018-06-11T02:52:44.071Z,97439.30
2018-06-11T02:55:11.603Z,97437.67
2018-06-11T02:57:39.150Z,97447.28
2018-06-11T03:00:06.688Z,97447.38
2018-06-11T03:02:34.199Z,97448.25
2018-06-11T03:05:01.735Z,97444.46
2018-06-11T03:07:29.245Z,97437.89
2018-06-11T03:09:56.766Z,97441.78
2018-06-11T03:12:24.322Z,97435.41
2018-06-11T03:14:51.865Z,97437.92
2018-06-11T03:17:19.378Z,97442.25
2018-06-11T03:19:46.933Z,97447.20
2018-06-11T03:22:14.440Z,97457.26
2018-06-11T03:24:41.955Z,97457.91
2018-06-11T03:27:09.490Z,97454.98
2018-06-11T03:29:36.997Z,97467.10
2018-06-11T03:32:04.968Z,97468.38
2018-06-11T03:34:32.511Z,97464.27
2018-06-11T03:37:00.035Z,97460.05
2018-06-11T03:39:27.550Z,97453.31
2018-06-11T03:41:55.082Z,97453.96
2018-06-11T03:44:22.602Z,97447.80
2018-06-11T03:46:50.150Z,97446.89
2018-06-11T03:49:17.711Z,97443.65
2018-06-11T03:51:45.222Z,97452.20
2018-06-11T03:54:12.734Z,97460.67
2018-06-11T03:56:40.281Z,97452.23
2018-06-11T03:59:07.818Z,97457.39
2018-06-11T04:01:35.338Z,97452.88
2018-06-11T04:04:02.870Z,97460.56
2018-06-11T04:06:30.419Z,97459.48
2018-06-11T04:08:57.934Z,97452.09
2018-06-11T04:11:25.474Z,97459.99
2018-06-11T04:13:53.043Z,97466.38
2018-06-11T04:16:20.561Z,97471.68
2018-06-11T04:18:48.142Z,97469.66
2018-06-11T04:21:15.645Z,97472.57
2018-06-11T04:23:43.166Z,97478.41
2018-06-11T04:26:10.706Z,97474.20
2018-06-11T04:28:38.206Z,97473.88
2018-06-11T04:31:05.722Z,97478.44
2018-06-11T04:33:33.246Z,97473.77
2018-06-11T04:36:00.765Z,97474.30
2018-06-11T04:38:28.270Z,97474.62
2018-06-11T04:40:55.826Z,97473.73
2018-06-11T04:43:23.358Z,97469.84
2018-06-11T04:45:50.857Z,97467.32
2018-06-11T04:48:18.397Z,97461.77
2018-06-11T04:50:45.922Z,97467.55
2018-06-11T04:53:13.434Z,97468.41
2018-06-11T04:55:40.998Z,97472.70
2018-06-11T04:58:08.507Z,97473.57
2018-06-11T05:00:36.019Z,97475.16
2018-06-11T05:03:03.570Z,97472.78
2018-06-11T05:05:31.098Z,97474.37
2018-06-11T05:07:58.611Z,97473.50
2018-06-11T05:10:26.155Z,97466.47
2018-06-11T05:12:53.661Z,97464.52
2018-06-11T05:15:21.200Z,97470.14
2018-06-11T05:17:48.747Z,97467.04
2018-06-11T05:20:16.246Z,97468.67
2018-06-11T05:22:43.766Z,97469.49
2018-06-11T05:25:11.317Z,97478.37
2018-06-11T05:27:38.819Z,97472.67
2018-06-11T05:30:06.330Z,97473.46
2018-06-11T05:32:33.867Z,97477.36
2018-06-11T05:35:01.387Z,97477.47
2018-06-11T05:37:28.906Z,97479.27
2018-06-11T05:39:56.458Z,97481.62
2018-06-11T05:42:23.945Z,97489.92
2018-06-11T05:44:51.452Z,97488.33
2018-06-11T05:47:19.302Z,97488.77
2018-06-11T05:49:46.806Z,97490.20
2018-06-11T05:52:14.312Z,97485.69
2018-06-11T05:54:41.855Z,97480.92
2018-06-11T05:57:09.413Z,97481.84
2018-06-11T05:59:36.946Z,97481.27
2018-06-11T06:02:04.596Z,97482.20
2018-06-11T06:04:32.118Z,97487.55
2018-06-11T06:06:59.668Z,97497.97
2018-06-11T06:09:27.233Z,97501.28
2018-06-11T06:11:54.762Z,97504.02
2018-06-11T06:14:22.291Z,97497.17
2018-06-11T06:16:49.837Z,97504.28
2018-06-11T06:19:17.366Z,97500.06
2018-06-11T06:21:44.938Z,97508.83
2018-06-11T06:24:12.577Z,97512.32
2018-06-11T06:26:40.133Z,97507.42
2018-06-11T06:29:07.634Z,97501.33
2018-06-11T06:31:35.195Z,97495.23
2018-06-11T06:34:02.730Z,97494.95
2018-06-11T06:36:30.253Z,97488.98
2018-06-11T06:38:57.806Z,97488.81
2018-06-11T06:41:25.338Z,97494.45
2018-06-11T06:43:52.862Z,97488.27
2018-06-11T06:46:20.415Z,97482.81
2018-06-11T06:48:47.943Z,97485.98
2018-06-11T06:51:15.451Z,97479.95
2018-06-11T06:53:43.045Z,97472.53
2018-06-11T06:56:10.563Z,97470.42
2018-06-11T06:58:38.068Z,97469.22
2018-06-11T07:01:05.647Z,97475.50
2018-06-11T07:03:33.179Z,97474.14
2018-06-11T07:06:01.637Z,97475.08
2018-06-11T07:08:29.204Z,97477.49
2018-06-11T07:10:56.734Z,97482.28
2018-06-11T07:13:24.258Z,97485.20
2018-06-11T07:15:51.813Z,97476.80
2018-06-11T07:18:19.335Z,97483.37
2018-06-11T07:20:46.857Z,97480.02
2018-06-11T07:23:14.446Z,97479.45
2018-06-11T07:25:41.970Z,97482.28
2018-06-11T07:28:09.505Z,97482.53
2018-06-11T07:30:37.045Z,97481.43
2018-06-11T07:33:04.590Z,97483.61
2018-06-11T07:35:32.137Z,97483.13
2018-06-11T07:37:59.719Z,97485.95
2018-06-11T07:40:27.243Z,97478.72
2018-06-11T07:42:54.767Z,97477.57
2018-06-11T07:45:22.353Z,97480.03
2018-06-11T07:47:49.923Z,97476.53
2018-06-11T07:50:17.451Z,97474.17
2018-06-11T07:52:44.998Z,97481.42
2018-06-11T07:55:12.531Z,97482.77
2018-06-11T07:57:40.075Z,97491.88
2018-06-11T08:00:07.667Z,97495.63
2018-06-11T08:02:35.203Z,97495.58
2018-06-11T08:05:02.798Z,97503.95
2018-06-11T08:07:30.425Z,97503.95
2018-06-11T08:09:57.960Z,97506.50
2018-06-11T08:12:25.498Z,97511.66
2018-06-11T08:14:53.067Z,97516.00
2018-06-11T08:17:20.589Z,97517.41
2018-06-11T08:19:48.118Z,97521.55
2018-06-11T08:22:15.702Z,97523.09
2018-06-11T08:24:43.242Z,97526.75
2018-06-11T08:27:10.773Z,97524.30
2018-06-11T08:29:38.346Z,97525.92
2018-06-11T08:32:06.010Z,97519.14
2018-06-11T08:34:33.543Z,97520.55
2018-06-11T08:37:01.101Z,97530.73
2018-06-11T08:39:28.642Z,97527.54
2018-06-11T08:41:56.175Z,97534.77
2018-06-11T08:44:23.735Z,97535.10
2018-06-11T08:46:51.279Z,97527.69
2018-06-11T08:49:18.866Z,97520.87
2018-06-11T08:51:46.418Z,97514.02
2018-06-11T08:54:13.930Z,97520.42
2018-06-11T08:56:41.454Z,97522.21
2018-06-11T08:59:09.038Z,97528.52
2018-06-11T09:01:36.594Z,97530.01
2018-06-11T09:04:04.170Z,97531.98
2018-06-11T09:06:31.710Z,97533.88
2018-06-11T09:08:59.236Z,97532.61
2018-06-11T09:11:26.775Z,97527.20
2018-06-11T09:13:54.342Z,97522.09
2018-06-11T09:16:21.886Z,97525.89
2018-06-11T09:18:49.411Z,97532.84
2018-06-11T09:21:16.974Z,97535.19
2018-06-11T09:23:44.505Z,97531.78
2018-06-11T09:26:12.031Z,97529.30
2018-06-11T09:28:39.591Z,97522.20
2018-06-11T09:31:07.125Z,97530.34
2018-06-11T09:33:34.650Z,97523.29
2018-06-11T09:36:02.200Z,97526.48
2018-06-11T09:38:29.731Z,97529.22
2018-06-11T09:40:57.331Z,97518.70
2018-06-11T09:43:24.863Z,97516.35
2018-06-11T09:45:52.391Z,97514.89
2018-06-11T09:48:19.913Z,97524.73
2018-06-11T09:50:47.474Z,97525.13
2018-06-11T09:53:14.999Z,97522.28
2018-06-11T09:55:42.575Z,97529.51
2018-06-11T09:58:10.106Z,97528.18
2018-06-11T10:00:37.642Z,97526.20
2018-06-11T10:03:05.222Z,97523.02
2018-06-11T10:05:32.978Z,97524.55
2018-06-11T10:08:00.507Z,97523.98
2018-06-11T10:10:28.079Z,97518.45
2018-06-11T10:12:55.642Z,97515.87
2018-06-11T10:15:23.181Z,97519.80
2018-06-11T10:17:50.711Z,97526.38
2018-06-11T10:20:18.276Z,97521.15
2018-06-11T10:22:45.798Z,97518.89
2018-06-11T10:25:13.298Z,97520.66
2018-06-11T10:27:40.878Z,97517.88
2018-06-11T10:30:08.432Z,97513.83
2018-06-11T10:32:35.954Z,97522.41
2018-06-11T10:35:03.546Z,97530.46
2018-06-11T10:37:31.059Z,97525.86
2018-06-11T10:39:58.586Z,97528.34
2018-06-11T10:42:26.154Z,97521.45
2018-06-11T10:44:53.657Z,97515.36
2018-06-11T10:47:21.417Z,97511.10
2018-06-11T10:49:48.947Z,97516.70
2018-06-11T10:52:16.483Z,97509.34
2018-06-11T10:54:44.020Z,97511.39
2018-06-11T10:57:11.629Z,97505.93
2018-06-11T10:59:39.147Z,97511.54
2018-06-11T11:02:06.772Z,97510.80
2018-06-11T11:04:34.322Z,97509.28
2018-06-11T11:07:01.858Z,97501.21
2018-06-11T11:09:29.377Z,97512.89
2018-06-11T11:11:56.918Z,97508.29
2018-06-11T11:14:24.449Z,97503.58
2018-06-11T11:16:51.998Z,97497.41
2018-06-11T11:19:19.566Z,97500.80
2018-06-11T11:21:47.083Z,97504.65
2018-06-11T11:24:14.588Z,97505.61
2018-06-11T11:26:42.141Z,97496.75
2018-06-11T11:29:09.741Z,97488.84
2018-06-11T11:31:37.356Z,97480.31
2018-06-11T11:34:04.886Z,97467.50
2018-06-11T11:36:32.394Z,97473.38
2018-06-11T11:38:59.902Z,97467.70
2018-06-11T11:41:27.479Z,97470.92
2018-06-11T11:43:55.022Z,97465.56
2018-06-11T11:46:22.555Z,97464.14
2018-06-11T11:48:50.125Z,97455.58
2018-06-11T11:51:17.642Z,97462.22
2018-06-11T11:53:45.183Z,97460.55
2018-06-11T11:56:12.720Z,97459.34
2018-06-11T11:58:40.237Z,97457.73
2018-06-11T12:01:07.742Z,97443.03
2018-06-11T12:03:35.298Z,97437.02
2018-06-11T12:06:02.828Z,97435.66
2018-06-11T12:08:30.346Z,97439.94
2018-06-11T12:10:57.954Z,97437.48
2018-06-11T12:13:25.483Z,97436.06
2018-06-11T12:15:53.029Z,97424.28
2018-06-11T12:18:20.597Z,97423.09
2018-06-11T12:20:48.112Z,97414.94
2018-06-11T12:23:15.646Z,97418.25
2018-06-11T12:25:43.190Z,97410.38
2018-06-11T12:28:10.705Z,97403.97
2018-06-11T12:30:38.236Z,97406.86
2018-06-11T12:33:05.823Z,97414.59
2018-06-11T12:35:33.334Z,97405.58
2018-06-11T12:38:00.850Z,97408.21
2018-06-11T12:40:28.405Z,97406.55
2018-06-11T12:42:55.945Z,97401.61
2018-06-11T12:45:23.470Z,97393.28
2018-06-11T12:47:51.107Z,97397.23
2018-06-11T12:50:18.646Z,97386.61
2018-06-11T12:52:46.215Z,97378.92
2018-06-11T12:55:13.752Z,97371.36
2018-06-11T12:57:41.255Z,97368.89
2018-06-11T13:00:08.812Z,97371.66
2018-06-11T13:02:36.366Z,97373.97
2018-06-11T13:05:03.950Z,97372.59
2018-06-11T13:07:31.471Z,97366.93
2018-06-11T13:09:59.001Z,97366.13
2018-06-11T13:12:26.560Z,97357.98
2018-06-11T13:14:54.081Z,97345.63
2018-06-11T13:17:21.658Z,97353.14
2018-06-11T13:19:49.167Z,97363.09
2018-06-11T13:22:16.683Z,97352.61
2018-06-11T13:24:44.236Z,97355.80
2018-06-11T13:27:11.770Z,97362.27
2018-06-11T13:29:39.295Z,97358.05
2018-06-11T13:32:06.833Z,97353.45
2018-06-11T13:34:34.338Z,97341.08
2018-06-11T13:37:01.918Z,97326.67
2018-06-11T13:39:29.457Z,97337.47
2018-06-11T13:41:56.962Z,97326.14
2018-06-11T13:44:24.479Z,97326.44
2018-06-11T13:46:52.060Z,97326.08
2018-06-11T13:49:19.573Z,97321.75
2018-06-11T13:51:47.098Z,97327.61
2018-06-11T13:54:14.698Z,97337.73
2018-06-11T13:56:42.245Z,97339.09
2018-06-11T13:59:09.787Z,97330.20
2018-06-11T14:01:37.341Z,97329.56
2018-06-11T14:04:04.975Z,97325.52
2018-06-11T14:06:32.509Z,97324.97
2018-06-11T14:09:00.062Z,97314.48
2018-06-11T14:11:27.641Z,97308.94
2018-06-11T14:13:55.284Z,97308.20
2018-06-11T14:16:22.834Z,97306.34
2018-06-11T14:18:50.338Z,97294.57
2018-06-11T14:21:17.846Z,97286.95
2018-06-11T14:23:45.383Z,97285.06
2018-06-11T14:26:12.901Z,97285.27
2018-06-11T14:28:40.480Z,97273.74
2018-06-11T14:31:08.007Z,97272.45
2018-06-11T14:33:35.553Z,97263.26
2018-06-11T14:36:03.110Z,97265.47
2018-06-11T14:38:30.730Z,97252.69
2018-06-11T14:40:58.274Z,97257.50
2018-06-11T14:43:25.806Z,97256.91
2018-06-11T14:45:53.374Z,97258.84
2018-06-11T14:48:20.898Z,97256.97
2018-06-11T14:50:48.399Z,97246.16
2018-06-11T14:53:15.954Z,97250.73
2018-06-11T14:55:43.498Z,97253.48
2018-06-11T14:58:11.099Z,97251.80
2018-06-11T15:00:38.583Z,97264.94
2018-06-11T15:03:06.106Z,97262.84
2018-06-11T15:05:33.666Z,97264.28
2018-06-11T15:08:01.234Z,97269.70
2018-06-11T15:10:28.755Z,97270.73
2018-06-11T15:12:56.274Z,97263.16
2018-06-11T15:15:23.824Z,97266.59
2018-06-11T15:17:51.349Z,97275.48
2018-06-11T15:20:18.866Z,97270.96
2018-06-11T15:22:46.427Z,97278.56
2018-06-11T15:25:13.938Z,97276.20
2018-06-11T15:27:41.456Z,97265.28
2018-06-11T15:30:08.996Z,97267.30
2018-06-11T15:32:36.539Z,97263.87
2018-06-11T15:35:04.078Z,97255.28
2018-06-11T15:37:31.615Z,97246.59
2018-06-11T15:39:59.143Z,97243.23
2018-06-11T15:42:26.704Z,97237.70
2018-06-11T15:44:54.263Z,97238.42
2018-06-11T15:47:21.832Z,97238.53
2018-06-11T15:49:49.353Z,97233.16
2018-06-11T15:52:16.899Z,97228.73
2018-06-11T15:54:44.411Z,97225.01
2018-06-11T15:57:11.964Z,97223.64
2018-06-11T15:59:39.535Z,97212.52
2018-06-11T16:02:07.088Z,97216.19
2018-06-11T16:04:34.592Z,97216.80
2018-06-11T16:07:02.147Z,97206.84
2018-06-11T16:09:29.671Z,97193.52
2018-06-11T16:11:57.212Z,97188.19
2018-06-11T16:14:24.766Z,97190.66
2018-06-11T16:16:52.296Z,97180.42
2018-06-11T16:19:19.799Z,97175.64
2018-06-11T16:21:47.342Z,97182.16
2018-06-11T16:24:14.874Z,97177.58
2018-06-11T16:26:42.421Z,97173.69
2018-06-11T16:29:09.970Z,97166.13
2018-06-11T16:31:37.546Z,97170.23
2018-06-11T16:34:05.055Z,97174.57
2018-06-11T16:36:32.626Z,97174.59
2018-06-11T16:39:00.165Z,97173.32
2018-06-11T16:41:27.961Z,97174.49
2018-06-11T16:43:55.505Z,97174.95
2018-06-11T16:46:23.030Z,97164.77
2018-06-11T16:48:50.578Z,97160.42
2018-06-11T16:51:18.119Z,97154.70
2018-06-11T16:53:45.626Z,97149.45
2018-06-11T16:56:13.159Z,97136.08
2018-06-11T16:58:40.754Z,97127.31
2018-06-11T17:01:08.286Z,97122.68
2018-06-11T17:03:35.792Z,97124.50
2018-06-11T17:06:03.394Z,97120.91
2018-06-11T17:08:30.917Z,97127.50
2018-06-11T17:10:58.498Z,97117.02
2018-06-11T17:13:26.069Z,97115.47
2018-06-11T17:15:53.611Z,97112.30
2018-06-11T17:18:21.138Z,97116.55
2018-06-11T17:20:48.674Z,97117.00
2018-06-11T17:23:16.194Z,97117.86
2018-06-11T17:25:43.711Z,97120.83
2018-06-11T17:28:11.266Z,97122.77
2018-06-11T17:30:38.778Z,97120.64
2018-06-11T17:33:06.383Z,97121.17
2018-06-11T17:35:33.944Z,97128.59
2018-06-11T17:38:02.645Z,97126.59
2018-06-11T17:40:30.203Z,97127.52
2018-06-11T17:42:57.762Z,97127.78
2018-06-11T17:45:25.284Z,97137.38
2018-06-11T17:47:52.790Z,97132.45
2018-06-11T17:50:20.338Z,97135.80
2018-06-11T17:52:47.851Z,97132.05
2018-06-11T17:55:15.378Z,97141.87
2018-06-11T17:57:42.964Z,97145.47
2018-06-11T18:00:10.462Z,97156.28
2018-06-11T18:02:37.982Z,97168.52
2018-06-11T18:05:05.555Z,97164.97
2018-06-11T18:07:33.103Z,97165.31
2018-06-11T18:10:00.658Z,97169.31
2018-06-11T18:12:28.210Z,97172.20
2018-06-11T18:14:55.719Z,97171.88
2018-06-11T18:17:23.254Z,97180.66
2018-06-11T18:19:50.827Z,97182.67
2018-06-11T18:22:18.355Z,97185.23
2018-06-11T18:24:45.874Z,97191.22
2018-06-11T18:27:13.453Z,97187.45
2018-06-11T18:29:40.978Z,97184.38
2018-06-11T18:32:08.519Z,97174.96
2018-06-11T18:34:36.081Z,97168.40
2018-06-11T18:37:03.608Z,97157.00
2018-06-11T18:39:31.134Z,97149.66
2018-06-11T18:41:58.708Z,97143.09
2018-06-11T18:44:26.262Z,97145.08
2018-06-11T18:46:53.798Z,97146.41
2018-06-11T18:49:21.374Z,97140.66
2018-06-11T18:51:48.907Z,97137.31
2018-06-11T18:54:16.422Z,97127.17
2018-06-11T18:56:44.003Z,97127.19
2018-06-11T18:59:11.513Z,97119.79
2018-06-11T19:01:39.034Z,97116.69
2018-06-11T19:04:06.651Z,97111.03
2018-06-11T19:06:34.170Z,97110.22
2018-06-11T19:09:01.718Z,97112.95
2018-06-11T19:11:29.310Z,97110.92
2018-06-11T19:13:56.841Z,97099.02
2018-06-11T19:16:24.377Z,97092.36
2018-06-11T19:18:51.989Z,97094.09
2018-06-11T19:21:19.474Z,97103.80
2018-06-11T19:23:47.017Z,97102.99
2018-06-11T19:26:14.610Z,97093.92
2018-06-11T19:28:42.146Z,97105.45
2018-06-11T19:31:09.694Z,97104.82
2018-06-11T19:33:37.255Z,97112.16
2018-06-11T19:36:04.826Z,97105.33
2018-06-11T19:38:32.366Z,97104.13
2018-06-11T19:40:59.930Z,97113.06
2018-06-11T19:43:27.506Z,97121.09
2018-06-11T19:45:55.014Z,97126.55
2018-06-11T19:48:22.566Z,97130.88
2018-06-11T19:50:50.115Z,97130.03
2018-06-11T19:53:17.638Z,97141.52
2018-06-11T19:55:45.202Z,97149.98
2018-06-11T19:58:12.735Z,97155.63
2018-06-11T20:00:40.262Z,97155.81
2018-06-11T20:03:07.888Z,97155.81
2018-06-11T20:05:35.428Z,97138.78
2018-06-11T20:08:03.010Z,97133.95
2018-06-11T20:10:30.595Z,97140.55
2018-06-11T20:12:58.127Z,97136.13
2018-06-11T20:15:25.666Z,97130.41
2018-06-11T20:17:53.218Z,97129.72
2018-06-11T20:20:20.801Z,97130.41
2018-06-11T20:22:48.356Z,97131.62
2018-06-11T20:25:15.919Z,97128.72
2018-06-11T20:27:43.497Z,97136.42
2018-06-11T20:30:11.046Z,97142.73
2018-06-11T20:32:38.619Z,97145.45
2018-06-11T20:35:06.154Z,97155.84
2018-06-11T20:37:33.716Z,97158.81
2018-06-11T20:40:01.316Z,97162.98
2018-06-11T20:42:28.842Z,97158.91
2018-06-11T20:44:56.354Z,97161.48
2018-06-11T20:47:23.937Z,97169.09
2018-06-11T20:49:51.446Z,97163.55
2018-06-11T20:52:18.972Z,97160.82
2018-06-11T20:54:46.532Z,97159.97
2018-06-11T20:57:14.170Z,97160.44
2018-06-11T20:59:41.686Z,97158.77
2018-06-11T21:02:09.271Z,97158.67
2018-06-11T21:04:36.798Z,97159.42
2018-06-11T21:07:04.580Z,97156.70
2018-06-11T21:09:32.145Z,97156.20
2018-06-11T21:11:59.671Z,97153.78
2018-06-11T21:14:27.200Z,97153.69
2018-06-11T21:16:54.786Z,97140.07
2018-06-11T21:19:22.354Z,97139.69
2018-06-11T21:21:49.850Z,97134.14
2018-06-11T21:24:17.405Z,97125.32
2018-06-11T21:26:44.922Z,97126.89
2018-06-11T21:29:12.450Z,97127.10
2018-06-11T21:31:39.995Z,97122.87
2018-06-11T21:34:07.535Z,97117.53
2018-06-11T21:36:35.075Z,97112.84
2018-06-11T21:39:02.774Z,97112.09
2018-06-11T21:41:30.298Z,97117.84
2018-06-11T21:43:57.813Z,97124.25
2018-06-11T21:46:25.360Z,97126.78
2018-06-11T21:48:52.900Z,97125.83
2018-06-11T21:51:20.511Z,97134.48
2018-06-11T21:53:48.050Z,97132.81
2018-06-11T21:56:15.570Z,97140.33
2018-06-11T21:58:43.082Z,97132.06
2018-06-11T22:01:10.660Z,97136.69
2018-06-11T22:03:38.207Z,97132.45
2018-06-11T22:06:05.750Z,97131.44
2018-06-11T22:08:33.294Z,97130.22
2018-06-11T22:11:00.822Z,97133.98
2018-06-11T22:13:28.350Z,97132.73
2018-06-11T22:15:56.902Z,97131.89
2018-06-11T22:18:24.417Z,97129.84
2018-06-11T22:20:51.937Z,97129.64
2018-06-11T22:23:19.513Z,97133.91
2018-06-11T22:25:47.030Z,97138.88
2018-06-11T22:28:14.545Z,97135.59
2018-06-11T22:33:09.002Z,97147.83
2018-06-11T22:35:36.535Z,97151.94
2018-06-11T22:38:04.100Z,97150.05
2018-06-11T22:40:31.618Z,97144.66
2018-06-11T22:42:59.136Z,97148.58
2018-06-11T22:45:26.677Z,97146.13
2018-06-11T22:47:54.178Z,97142.18
2018-06-11T22:50:21.674Z,97147.53
2018-06-11T22:52:49.230Z,97142.98
2018-06-11T22:55:16.754Z,97139.58
2018-06-11T22:57:44.263Z,97140.98
2018-06-11T23:00:12.327Z,97140.80
2018-06-11T23:02:39.830Z,97145.77
2018-06-11T23:05:07.335Z,97151.25
2018-06-11T23:07:34.902Z,97142.91
2018-06-11T23:10:02.426Z,97143.56
2018-06-11T23:12:29.934Z,97143.16
2018-06-11T23:14:57.491Z,97143.37
2018-06-11T23:17:25.014Z,97145.33
2018-06-11T23:19:52.522Z,97146.42
2018-06-11T23:22:20.082Z,97140.80
2018-06-11T23:24:47.592Z,97143.06
2018-06-11T23:27:15.111Z,97139.94
2018-06-11T23:29:42.643Z,97142.30
2018-06-11T23:32:10.137Z,97138.00
2018-06-11T23:34:37.650Z,97136.17
2018-06-11T23:37:05.214Z,97132.97
2018-06-11T23:39:32.738Z,97135.17
2018-06-11T23:42:17.433Z,97134.68
2018-06-11T23:47:52.326Z,97131.91
2018-06-11T23:50:19.862Z,97118.88
2018-06-11T23:52:47.414Z,97123.73
2018-06-11T23:55:15.013Z,97117.14
2018-06-11T23:57:42.546Z,97122.11
